Time;durP1;ratioP1;P1;durP2;ratioP2;P2;SDS_P1;SDS_P2;PMS_P1;PMS_P2;Temp;Humidity;BMP_temperature;BMP_pressure;BME280_temperature;BME280_humidity;BME280_pressure;Samples;Min_cycle;Max_cycle;Signal;HPM_P1;HPM_P2
2022/04/16 00:01:17;;;;;;;;;;;22.00;42.90;;;;;;5069993;28;20011;-61
2022/04/16 00:03:43;;;;;;;;;;;22.00;42.80;;;;;;5071951;28;19916;-61
2022/04/16 00:06:09;;;;;;;;;;;22.00;42.80;;;;;;5071719;28;19919;-61
2022/04/16 00:08:34;;;;;;;;;;;22.00;42.80;;;;;;5072601;28;20371;-61
2022/04/16 00:11:00;;;;;;;;;;;22.00;42.90;;;;;;5070090;28;20019;-61
2022/04/16 00:13:26;;;;;;;;;;;21.90;42.80;;;;;;5071980;28;19935;-61
2022/04/16 00:15:54;;;;;;;;;;;21.90;42.90;;;;;;5070976;28;20368;-60
2022/04/16 00:18:20;;;;;;;;;;;21.90;42.90;;;;;;5071853;28;19961;-61
2022/04/16 00:20:45;;;;;;;;;;;21.80;42.90;;;;;;5071521;28;20003;-61
2022/04/16 00:23:11;;;;;;;;;;;21.90;43.00;;;;;;5041103;28;19913;-61
2022/04/16 00:25:36;;;;;;;;;;;21.80;42.90;;;;;;5067323;28;20200;-61
2022/04/16 00:28:02;;;;;;;;;;;21.80;43.00;;;;;;5071508;28;20024;-61
2022/04/16 00:30:28;;;;;;;;;;;21.70;42.90;;;;;;5069926;28;19912;-60
2022/04/16 00:32:55;;;;;;;;;;;21.70;43.10;;;;;;5071041;28;20372;-61
2022/04/16 00:35:23;;;;;;;;;;;21.60;43.10;;;;;;5071881;28;20011;-61
2022/04/16 00:37:49;;;;;;;;;;;21.60;43.10;;;;;;5070837;28;19920;-61
2022/04/16 00:40:14;;;;;;;;;;;21.60;43.10;;;;;;5068172;28;20471;-61
2022/04/16 00:42:41;;;;;;;;;;;21.60;43.20;;;;;;5071192;28;19913;-61
2022/04/16 00:45:06;;;;;;;;;;;21.60;43.00;;;;;;5068963;28;20410;-61
2022/04/16 00:47:32;;;;;;;;;;;21.50;43.10;;;;;;5069641;28;19916;-61
2022/04/16 00:49:57;;;;;;;;;;;21.60;43.10;;;;;;5069510;28;19917;-61
2022/04/16 00:52:23;;;;;;;;;;;21.60;43.00;;;;;;5070035;28;19912;-60
2022/04/16 00:54:51;;;;;;;;;;;21.50;43.10;;;;;;5070342;28;19916;-59
2022/04/16 00:57:17;;;;;;;;;;;21.50;42.90;;;;;;5068912;28;19921;-61
2022/04/16 00:59:42;;;;;;;;;;;21.50;42.80;;;;;;5067636;28;20422;-61
2022/04/16 01:02:09;;;;;;;;;;;21.60;42.90;;;;;;5069733;28;19920;-61
2022/04/16 01:04:35;;;;;;;;;;;21.50;42.90;;;;;;5070315;28;19921;-61
2022/04/16 01:07:00;;;;;;;;;;;21.50;42.90;;;;;;5069273;28;20368;-61
2022/04/16 01:09:26;;;;;;;;;;;21.40;43.00;;;;;;5075335;28;19919;-61
2022/04/16 01:11:51;;;;;;;;;;;21.30;43.10;;;;;;5067003;28;19923;-61
2022/04/16 01:14:19;;;;;;;;;;;21.40;43.20;;;;;;5070782;28;20006;-61
2022/04/16 01:16:45;;;;;;;;;;;21.40;43.00;;;;;;5069459;28;19924;-61
2022/04/16 01:19:10;;;;;;;;;;;21.50;42.90;;;;;;5070974;28;19928;-61
2022/04/16 01:21:36;;;;;;;;;;;21.60;42.70;;;;;;5086574;28;19908;-61
2022/04/16 01:24:01;;;;;;;;;;;21.60;42.50;;;;;;5064397;28;19920;-61
2022/04/16 01:26:27;;;;;;;;;;;21.70;43.00;;;;;;5070003;28;20517;-60
2022/04/16 01:28:52;;;;;;;;;;;21.80;42.20;;;;;;5068143;28;19920;-62
2022/04/16 01:31:18;;;;;;;;;;;22.00;42.00;;;;;;5067884;28;19977;-61
2022/04/16 01:33:43;;;;;;;;;;;22.10;41.70;;;;;;5068619;28;20685;-61
2022/04/16 01:36:08;;;;;;;;;;;22.30;41.50;;;;;;5068754;28;19912;-61
2022/04/16 01:38:34;;;;;;;;;;;22.40;41.30;;;;;;5068293;28;19929;-61
2022/04/16 01:40:59;;;;;;;;;;;22.50;41.10;;;;;;5069957;28;20360;-61
2022/04/16 01:43:25;;;;;;;;;;;22.70;40.90;;;;;;5062390;28;20293;-61
2022/04/16 01:45:50;;;;;;;;;;;22.80;40.60;;;;;;5061624;28;20273;-61
2022/04/16 01:48:16;;;;;;;;;;;22.90;40.50;;;;;;5068920;28;19964;-61
2022/04/16 01:50:42;;;;;;;;;;;22.90;40.20;;;;;;5069055;28;19952;-61
2022/04/16 01:53:07;;;;;;;;;;;23.00;40.10;;;;;;5066045;28;19954;-61
2022/04/16 01:55:32;;;;;;;;;;;23.10;40.00;;;;;;5069363;28;19932;-62
2022/04/16 01:57:58;;;;;;;;;;;23.10;39.90;;;;;;5068513;28;19912;-61
2022/04/16 02:00:23;;;;;;;;;;;23.10;39.80;;;;;;5068481;28;19912;-61
2022/04/16 02:02:50;;;;;;;;;;;23.10;39.70;;;;;;5068297;28;19939;-61
2022/04/16 02:05:16;;;;;;;;;;;23.10;39.60;;;;;;5070855;28;19913;-61
2022/04/16 02:07:41;;;;;;;;;;;23.10;39.70;;;;;;5075660;28;20284;-61
2022/04/16 02:10:07;;;;;;;;;;;23.10;39.70;;;;;;5067023;28;19913;-61
2022/04/16 02:12:32;;;;;;;;;;;23.10;39.60;;;;;;5065747;28;19917;-61
2022/04/16 02:14:58;;;;;;;;;;;23.10;39.70;;;;;;5066740;28;19916;-61
2022/04/16 02:17:24;;;;;;;;;;;23.10;39.80;;;;;;5068927;28;19920;-61
2022/04/16 02:19:49;;;;;;;;;;;23.00;39.70;;;;;;5071043;28;19912;-61
2022/04/16 02:22:15;;;;;;;;;;;23.00;39.70;;;;;;5073200;28;19916;-61
2022/04/16 02:24:41;;;;;;;;;;;23.00;39.90;;;;;;5068792;28;19912;-61
2022/04/16 02:27:06;;;;;;;;;;;22.90;39.90;;;;;;5074812;28;19932;-61
2022/04/16 02:29:33;;;;;;;;;;;22.90;39.90;;;;;;5074616;28;19916;-61
2022/04/16 02:31:58;;;;;;;;;;;22.80;39.90;;;;;;5071463;28;20383;-61
2022/04/16 02:34:24;;;;;;;;;;;22.90;40.00;;;;;;5071626;28;19920;-61
2022/04/16 02:36:49;;;;;;;;;;;22.90;40.00;;;;;;5070394;28;19922;-61
2022/04/16 02:39:15;;;;;;;;;;;22.80;39.80;;;;;;5072483;28;20019;-61
2022/04/16 02:41:41;;;;;;;;;;;22.80;39.70;;;;;;5070162;28;19917;-61
2022/04/16 02:47:04;;;;;;;;;;;22.80;39.70;;;;;;5071965;28;19967;-61
2022/04/16 02:47:08;;;;;;;;;;;22.80;39.70;;;;;;5073276;28;20360;-61
2022/04/16 02:49:35;;;;;;;;;;;22.90;39.70;;;;;;5072754;28;19916;-61
2022/04/16 02:52:01;;;;;;;;;;;22.90;39.70;;;;;;5072652;28;20303;-61
2022/04/16 02:54:27;;;;;;;;;;;22.90;39.60;;;;;;5071494;28;19913;-61
2022/04/16 02:56:53;;;;;;;;;;;22.90;39.60;;;;;;5071792;28;19920;-61
2022/04/16 02:59:18;;;;;;;;;;;22.90;39.60;;;;;;5077765;28;19912;-61
2022/04/16 03:01:44;;;;;;;;;;;22.90;39.60;;;;;;5066316;28;19919;-61
2022/04/16 03:04:09;;;;;;;;;;;22.80;39.50;;;;;;5071893;28;20016;-61
2022/04/16 03:06:35;;;;;;;;;;;22.80;39.50;;;;;;5070792;28;19916;-61
2022/04/16 03:09:01;;;;;;;;;;;22.80;39.60;;;;;;5072148;28;19948;-61
2022/04/16 03:11:26;;;;;;;;;;;22.80;39.60;;;;;;5076405;28;19958;-61
2022/04/16 03:13:52;;;;;;;;;;;22.70;39.60;;;;;;5071875;28;19912;-61
2022/04/16 03:19:01;;;;;;;;;;;22.70;39.70;;;;;;5072886;28;19919;-61
2022/04/16 03:21:26;;;;;;;;;;;22.70;39.90;;;;;;5071189;28;20007;-61
2022/04/16 03:23:52;;;;;;;;;;;22.60;40.00;;;;;;5070530;28;19912;-62
2022/04/16 03:26:17;;;;;;;;;;;22.50;40.00;;;;;;5069102;28;19913;-61
2022/04/16 03:28:43;;;;;;;;;;;22.50;40.00;;;;;;5070567;28;20357;-61
2022/04/16 03:31:08;;;;;;;;;;;22.50;40.10;;;;;;5069624;28;20415;-61
2022/04/16 03:33:33;;;;;;;;;;;22.40;40.00;;;;;;5067135;28;20372;-61
2022/04/16 03:35:59;;;;;;;;;;;22.50;40.10;;;;;;5068945;28;19917;-60
2022/04/16 03:38:24;;;;;;;;;;;22.50;40.00;;;;;;5070030;28;19920;-60
2022/04/16 03:40:50;;;;;;;;;;;22.50;40.00;;;;;;5070608;28;19924;-60
2022/04/16 03:43:18;;;;;;;;;;;22.50;39.80;;;;;;5065616;28;19916;-61
2022/04/16 03:45:43;;;;;;;;;;;22.60;39.80;;;;;;5067484;28;20296;-61
2022/04/16 03:48:08;;;;;;;;;;;22.60;39.70;;;;;;5070046;28;19916;-61
2022/04/16 03:50:35;;;;;;;;;;;22.60;39.50;;;;;;5071930;28;19916;-61
2022/04/16 03:53:00;;;;;;;;;;;22.70;39.40;;;;;;5068552;28;19917;-61
2022/04/16 04:00:58;;;;;;;;;;;22.60;39.40;;;;;;5070206;28;19920;-61
2022/04/16 04:03:23;;;;;;;;;;;22.60;39.50;;;;;;5070451;28;19912;-61
2022/04/16 04:05:49;;;;;;;;;;;22.60;39.50;;;;;;5071796;28;19912;-61
2022/04/16 04:08:15;;;;;;;;;;;22.60;39.50;;;;;;5071612;28;19912;-61
2022/04/16 04:10:40;;;;;;;;;;;22.50;39.40;;;;;;5062925;28;19916;-61
2022/04/16 04:13:06;;;;;;;;;;;22.60;39.50;;;;;;5057649;28;20369;-61
2022/04/16 04:15:31;;;;;;;;;;;22.50;39.40;;;;;;5056115;28;19913;-61
2022/04/16 04:17:58;;;;;;;;;;;22.50;39.30;;;;;;5071427;28;20011;-61
2022/04/16 04:20:24;;;;;;;;;;;22.50;39.40;;;;;;5070673;28;19913;-60
2022/04/16 04:22:49;;;;;;;;;;;22.40;39.40;;;;;;5068782;28;19917;-61
2022/04/16 04:25:15;;;;;;;;;;;22.40;39.50;;;;;;5069473;28;20283;-61
2022/04/16 04:27:40;;;;;;;;;;;22.40;39.50;;;;;;5087990;28;19962;-61
2022/04/16 04:30:06;;;;;;;;;;;22.40;39.40;;;;;;5069600;28;19927;-61
2022/04/16 04:32:32;;;;;;;;;;;22.30;39.40;;;;;;5071881;28;19916;-60
2022/04/16 04:34:57;;;;;;;;;;;22.40;39.40;;;;;;5071346;28;19995;-61
2022/04/16 04:37:23;;;;;;;;;;;22.40;39.30;;;;;;5071073;28;19921;-61
2022/04/16 04:39:49;;;;;;;;;;;22.40;39.20;;;;;;5069084;28;19912;-61
2022/04/16 04:42:33;;;;;;;;;;;22.40;39.10;;;;;;5070071;28;19965;-61
2022/04/16 04:44:58;;;;;;;;;;;22.40;39.10;;;;;;5068840;28;19931;-61
2022/04/16 04:47:24;;;;;;;;;;;22.50;39.10;;;;;;5070895;28;20458;-61
2022/04/16 04:49:49;;;;;;;;;;;22.50;39.00;;;;;;5072436;28;20283;-61
2022/04/16 04:52:26;;;;;;;;;;;22.60;38.90;;;;;;5083373;28;19924;-61
2022/04/16 04:54:58;;;;;;;;;;;22.60;38.80;;;;;;5058003;28;19978;-61
2022/04/16 04:57:24;;;;;;;;;;;22.60;38.70;;;;;;5067646;28;19973;-61
2022/04/16 04:59:49;;;;;;;;;;;22.70;38.70;;;;;;5070260;28;20334;-61
2022/04/16 05:02:14;;;;;;;;;;;22.60;38.50;;;;;;5068878;28;19938;-61
2022/04/16 05:04:40;;;;;;;;;;;22.60;38.50;;;;;;5071948;28;19981;-61
2022/04/16 05:07:07;;;;;;;;;;;22.60;38.70;;;;;;5070152;28;20003;-61
2022/04/16 05:09:32;;;;;;;;;;;22.50;38.70;;;;;;5070195;28;20269;-61
2022/04/16 05:11:58;;;;;;;;;;;22.50;38.70;;;;;;5071065;28;19913;-61
2022/04/16 05:14:23;;;;;;;;;;;22.50;38.70;;;;;;5067620;28;19928;-61
2022/04/16 05:16:49;;;;;;;;;;;22.50;38.80;;;;;;5070433;28;19916;-60
2022/04/16 05:19:14;;;;;;;;;;;22.50;38.80;;;;;;5071952;28;19954;-61
2022/04/16 05:21:40;;;;;;;;;;;22.50;38.80;;;;;;5070223;28;20303;-61
2022/04/16 05:24:06;;;;;;;;;;;22.40;38.70;;;;;;5069937;28;19913;-60
2022/04/16 05:26:32;;;;;;;;;;;22.50;38.70;;;;;;5068986;28;19913;-61
2022/04/16 05:28:58;;;;;;;;;;;22.40;38.70;;;;;;5070480;28;19919;-61
2022/04/16 05:31:26;;;;;;;;;;;22.40;38.70;;;;;;5068826;28;20274;-61
2022/04/16 05:36:38;;;;;;;;;;;22.50;38.60;;;;;;5068376;28;20388;-61
2022/04/16 05:39:04;;;;;;;;;;;22.60;38.40;;;;;;5067238;28;20377;-61
2022/04/16 05:41:29;;;;;;;;;;;22.60;38.30;;;;;;5067602;28;19921;-61
2022/04/16 05:43:55;;;;;;;;;;;22.60;38.20;;;;;;5067601;28;20396;-61
2022/04/16 05:46:21;;;;;;;;;;;22.60;38.20;;;;;;5056980;28;19974;-61
2022/04/16 05:48:46;;;;;;;;;;;22.60;38.20;;;;;;5069897;28;19912;-61
2022/04/16 05:51:12;;;;;;;;;;;22.60;38.20;;;;;;5070205;28;19913;-61
2022/04/16 05:53:37;;;;;;;;;;;22.60;38.20;;;;;;5070984;28;20364;-61
2022/04/16 05:56:03;;;;;;;;;;;22.70;38.20;;;;;;5072389;28;20296;-61
2022/04/16 05:58:28;;;;;;;;;;;22.70;38.20;;;;;;5073869;28;19920;-61
2022/04/16 06:00:54;;;;;;;;;;;22.70;38.20;;;;;;5074363;28;19991;-61
2022/04/16 06:03:19;;;;;;;;;;;22.60;38.30;;;;;;5071320;28;19913;-61
2022/04/16 06:05:46;;;;;;;;;;;22.50;38.30;;;;;;5075118;28;19956;-61
2022/04/16 06:08:11;;;;;;;;;;;22.50;38.50;;;;;;5075287;28;20419;-61
2022/04/16 06:10:37;;;;;;;;;;;22.40;38.60;;;;;;5075109;28;19948;-60
2022/04/16 06:13:03;;;;;;;;;;;22.30;38.80;;;;;;5071684;28;19919;-61
2022/04/16 06:15:28;;;;;;;;;;;22.20;39.00;;;;;;5074251;28;19909;-61
2022/04/16 06:17:54;;;;;;;;;;;22.20;39.00;;;;;;5074929;28;19919;-61
2022/04/16 06:20:19;;;;;;;;;;;22.10;39.10;;;;;;5073609;28;19917;-61
2022/04/16 06:22:45;;;;;;;;;;;22.10;39.10;;;;;;5064123;28;19913;-61
2022/04/16 06:25:10;;;;;;;;;;;22.10;39.20;;;;;;5057335;28;20142;-61
2022/04/16 06:27:38;;;;;;;;;;;22.00;39.10;;;;;;5073589;28;19916;-61
2022/04/16 06:30:04;;;;;;;;;;;22.10;39.10;;;;;;5072295;28;19912;-61
2022/04/16 06:32:30;;;;;;;;;;;22.00;39.10;;;;;;5063702;28;19917;-61
2022/04/16 06:34:55;;;;;;;;;;;22.00;39.20;;;;;;5079751;28;20328;-61
2022/04/16 06:37:21;;;;;;;;;;;22.00;39.30;;;;;;5074797;28;20387;-61
2022/04/16 06:39:46;;;;;;;;;;;22.00;39.10;;;;;;5072047;28;20300;-61
2022/04/16 06:42:12;;;;;;;;;;;21.90;39.20;;;;;;5072595;28;20445;-61
2022/04/16 06:44:37;;;;;;;;;;;21.90;39.30;;;;;;5074683;28;19970;-61
2022/04/16 06:47:03;;;;;;;;;;;21.90;39.40;;;;;;5070833;28;19916;-61
2022/04/16 06:49:29;;;;;;;;;;;21.80;39.30;;;;;;5073203;28;20043;-61
2022/04/16 06:51:54;;;;;;;;;;;22.00;39.30;;;;;;5072347;28;19938;-61
2022/04/16 06:54:19;;;;;;;;;;;21.90;39.10;;;;;;5074136;28;19956;-60
2022/04/16 06:56:45;;;;;;;;;;;21.90;39.20;;;;;;5074048;28;19970;-60
2022/04/16 06:59:10;;;;;;;;;;;21.90;39.30;;;;;;5070189;28;19971;-60
2022/04/16 07:01:36;;;;;;;;;;;21.80;39.40;;;;;;5069782;28;20648;-61
2022/04/16 07:04:01;;;;;;;;;;;21.70;39.40;;;;;;5071492;28;20327;-61
2022/04/16 07:06:27;;;;;;;;;;;21.70;39.60;;;;;;5068871;28;20283;-61
2022/04/16 07:08:52;;;;;;;;;;;21.70;39.60;;;;;;5063264;28;19912;-61
2022/04/16 07:11:18;;;;;;;;;;;21.60;39.60;;;;;;5071756;28;20007;-61
2022/04/16 07:13:43;;;;;;;;;;;21.60;39.60;;;;;;5070652;28;19960;-61
2022/04/16 07:16:09;;;;;;;;;;;21.60;39.70;;;;;;5040140;28;19994;-60
2022/04/16 07:18:34;;;;;;;;;;;21.60;39.80;;;;;;5070732;28;19921;-61
2022/04/16 07:21:00;;;;;;;;;;;21.60;39.70;;;;;;5071282;28;19916;-61
2022/04/16 07:23:25;;;;;;;;;;;21.50;39.60;;;;;;5072709;28;19917;-61
2022/04/16 07:25:50;;;;;;;;;;;21.60;39.70;;;;;;5073500;28;19915;-61
2022/04/16 07:28:21;;;;;;;;;;;21.70;39.60;;;;;;5072592;28;20277;-61
2022/04/16 07:30:47;;;;;;;;;;;21.70;39.50;;;;;;5079543;28;19954;-60
2022/04/16 07:33:13;;;;;;;;;;;21.80;39.30;;;;;;5071242;28;19952;-61
2022/04/16 07:35:38;;;;;;;;;;;21.80;39.10;;;;;;5073536;28;19997;-60
2022/04/16 07:38:04;;;;;;;;;;;21.90;39.10;;;;;;5070674;28;19924;-60
2022/04/16 07:40:30;;;;;;;;;;;21.90;39.00;;;;;;5071406;28;19920;-60
2022/04/16 07:42:55;;;;;;;;;;;22.00;39.00;;;;;;5072249;28;19916;-61
2022/04/16 07:45:24;;;;;;;;;;;22.00;38.90;;;;;;5063178;28;19922;-60
2022/04/16 07:47:49;;;;;;;;;;;22.00;38.90;;;;;;5069560;28;19916;-60
2022/04/16 07:50:16;;;;;;;;;;;22.00;38.80;;;;;;5073043;28;20265;-61
2022/04/16 07:52:42;;;;;;;;;;;22.00;38.80;;;;;;5071450;28;19913;-61
2022/04/16 07:55:08;;;;;;;;;;;22.00;38.80;;;;;;5071905;28;20417;-61
2022/04/16 07:57:33;;;;;;;;;;;22.00;38.80;;;;;;5073102;28;19968;-61
2022/04/16 07:59:58;;;;;;;;;;;22.00;38.90;;;;;;5071213;28;20019;-61
2022/04/16 08:02:24;;;;;;;;;;;22.00;39.00;;;;;;5073092;28;19912;-61
2022/04/16 08:04:49;;;;;;;;;;;22.00;39.00;;;;;;5071926;28;19913;-61
2022/04/16 08:07:15;;;;;;;;;;;22.00;39.00;;;;;;5072840;28;19917;-61
2022/04/16 08:09:40;;;;;;;;;;;21.90;38.90;;;;;;5071694;28;19963;-60
2022/04/16 08:12:06;;;;;;;;;;;21.90;39.00;;;;;;5068895;28;20292;-60
2022/04/16 08:14:31;;;;;;;;;;;21.90;39.00;;;;;;5072716;28;20006;-61
2022/04/16 08:16:57;;;;;;;;;;;21.90;39.00;;;;;;5071796;28;19919;-60
2022/04/16 08:19:23;;;;;;;;;;;21.90;39.00;;;;;;5072051;28;19909;-60
2022/04/16 08:21:48;;;;;;;;;;;21.90;39.10;;;;;;5068992;28;19919;-60
2022/04/16 08:24:22;;;;;;;;;;;21.90;39.10;;;;;;5057069;28;19916;-60
2022/04/16 08:26:48;;;;;;;;;;;21.90;39.10;;;;;;5075017;28;19913;-61
2022/04/16 08:29:13;;;;;;;;;;;21.80;39.00;;;;;;5069126;28;20350;-61
2022/04/16 08:31:39;;;;;;;;;;;21.80;39.10;;;;;;5070106;28;20513;-60
2022/04/16 08:34:04;;;;;;;;;;;21.90;39.20;;;;;;5069387;28;19924;-61
2022/04/16 08:36:30;;;;;;;;;;;21.90;39.20;;;;;;5068911;28;19919;-61
2022/04/16 08:38:55;;;;;;;;;;;21.90;39.10;;;;;;5066077;28;19958;-61
2022/04/16 08:41:20;;;;;;;;;;;21.90;39.10;;;;;;5072233;28;19958;-61
2022/04/16 08:43:46;;;;;;;;;;;21.90;39.90;;;;;;5067075;28;19927;-61
2022/04/16 08:46:11;;;;;;;;;;;21.80;39.40;;;;;;5068931;28;19999;-61
2022/04/16 08:48:37;;;;;;;;;;;21.80;39.50;;;;;;5071490;28;19917;-61
2022/04/16 08:51:02;;;;;;;;;;;21.80;39.20;;;;;;5068428;28;19928;-61
2022/04/16 08:53:28;;;;;;;;;;;21.80;38.40;;;;;;5072234;28;19908;-61
2022/04/16 08:55:53;;;;;;;;;;;21.70;38.30;;;;;;5066085;28;19972;-60
2022/04/16 08:58:19;;;;;;;;;;;21.70;38.90;;;;;;5070602;28;19957;-60
2022/04/16 09:00:44;;;;;;;;;;;21.80;39.30;;;;;;5069501;28;19916;-60
2022/04/16 09:03:10;;;;;;;;;;;21.80;39.40;;;;;;5053976;28;19921;-61
2022/04/16 09:05:35;;;;;;;;;;;21.80;39.40;;;;;;5051274;28;19912;-61
2022/04/16 09:08:02;;;;;;;;;;;21.90;39.30;;;;;;5059252;28;19916;-60
2022/04/16 09:10:28;;;;;;;;;;;21.90;39.40;;;;;;5070550;28;19947;-60
2022/04/16 09:12:55;;;;;;;;;;;21.90;39.40;;;;;;5072094;28;19997;-60
2022/04/16 09:15:21;;;;;;;;;;;21.90;39.50;;;;;;5071006;28;20072;-60
2022/04/16 09:17:56;;;;;;;;;;;21.90;39.60;;;;;;5070252;28;19924;-61
2022/04/16 09:20:22;;;;;;;;;;;21.90;39.60;;;;;;5065302;28;19921;-61
2022/04/16 09:22:49;;;;;;;;;;;22.00;40.00;;;;;;5070147;28;19919;-60
2022/04/16 09:25:15;;;;;;;;;;;22.00;40.00;;;;;;5070260;28;19917;-60
2022/04/16 09:27:46;;;;;;;;;;;22.00;40.00;;;;;;5072153;28;19923;-60
2022/04/16 09:30:12;;;;;;;;;;;22.00;40.10;;;;;;5056563;28;19917;-61
2022/04/16 09:32:44;;;;;;;;;;;22.00;40.20;;;;;;5062481;28;19908;-60
2022/04/16 09:35:28;;;;;;;;;;;22.00;40.20;;;;;;5075706;28;19909;-60
2022/04/16 09:37:54;;;;;;;;;;;22.00;40.40;;;;;;5075838;28;20380;-60
2022/04/16 09:40:21;;;;;;;;;;;22.00;40.20;;;;;;5075938;28;19908;-60
2022/04/16 09:42:53;;;;;;;;;;;22.10;40.20;;;;;;5073862;28;19916;-60
2022/04/16 09:45:18;;;;;;;;;;;22.10;40.20;;;;;;5064692;28;20331;-60
2022/04/16 09:47:44;;;;;;;;;;;22.10;40.30;;;;;;5082382;28;19915;-60
2022/04/16 09:50:09;;;;;;;;;;;22.10;40.40;;;;;;5084022;28;19935;-60
2022/04/16 09:52:35;;;;;;;;;;;22.10;40.30;;;;;;5055809;28;19944;-60
2022/04/16 09:55:01;;;;;;;;;;;22.10;40.30;;;;;;5054128;28;19916;-60
2022/04/16 09:57:27;;;;;;;;;;;22.20;40.40;;;;;;5062775;28;19966;-60
2022/04/16 09:59:52;;;;;;;;;;;22.20;40.30;;;;;;5072437;28;19969;-60
2022/04/16 10:02:18;;;;;;;;;;;22.20;40.30;;;;;;5075273;28;19908;-60
2022/04/16 10:04:44;;;;;;;;;;;22.20;40.30;;;;;;5075269;28;20273;-60
2022/04/16 10:07:09;;;;;;;;;;;22.20;40.20;;;;;;5067935;28;19962;-60
2022/04/16 10:09:41;;;;;;;;;;;22.10;40.20;;;;;;5072939;28;19917;-60
2022/04/16 10:15:02;;;;;;;;;;;22.20;40.20;;;;;;5072974;28;19918;-61
2022/04/16 10:17:28;;;;;;;;;;;22.20;40.00;;;;;;5073392;28;19916;-61
2022/04/16 10:19:55;;;;;;;;;;;22.30;39.90;;;;;;5073440;28;20403;-61
2022/04/16 10:22:26;;;;;;;;;;;22.20;39.80;;;;;;5066840;28;19920;-61
2022/04/16 10:24:54;;;;;;;;;;;22.30;40.40;;;;;;5054014;28;19941;-61
2022/04/16 10:27:26;;;;;;;;;;;22.20;39.70;;;;;;5054745;28;20416;-61
2022/04/16 10:29:52;;;;;;;;;;;22.30;39.80;;;;;;5054211;28;20351;-61
2022/04/16 10:32:18;;;;;;;;;;;22.20;39.80;;;;;;5053810;28;19948;-60
2022/04/16 10:34:43;;;;;;;;;;;22.20;39.80;;;;;;5054579;28;19956;-61
2022/04/16 10:37:22;;;;;;;;;;;22.30;39.70;;;;;;5054839;28;20338;-60
2022/04/16 10:39:50;;;;;;;;;;;22.20;39.60;;;;;;5072822;28;19955;-60
2022/04/16 10:42:15;;;;;;;;;;;22.20;39.70;;;;;;5074672;28;20307;-61
2022/04/16 10:44:44;;;;;;;;;;;22.20;39.80;;;;;;5072484;28;19921;-60
2022/04/16 10:47:10;;;;;;;;;;;22.20;39.90;;;;;;5074842;28;19958;-61
2022/04/16 10:49:38;;;;;;;;;;;22.20;40.00;;;;;;5074764;28;19912;-59
2022/04/16 10:52:04;;;;;;;;;;;22.20;39.90;;;;;;5074603;28;19956;-60
2022/04/16 10:54:36;;;;;;;;;;;22.20;39.90;;;;;;5074626;28;20410;-61
2022/04/16 10:57:02;;;;;;;;;;;22.20;39.90;;;;;;5074483;28;19919;-60
2022/04/16 10:59:34;;;;;;;;;;;22.20;39.80;;;;;;5074116;28;19908;-61
2022/04/16 11:02:01;;;;;;;;;;;22.20;39.80;;;;;;5073510;28;19935;-61
2022/04/16 11:04:27;;;;;;;;;;;22.20;39.80;;;;;;5055558;28;19913;-61
2022/04/16 11:06:56;;;;;;;;;;;22.20;39.80;;;;;;5053272;28;19909;-61
2022/04/16 11:09:22;;;;;;;;;;;22.30;39.70;;;;;;5069162;28;19908;-61
2022/04/16 11:11:51;;;;;;;;;;;22.30;39.60;;;;;;5065391;28;20003;-61
2022/04/16 11:14:16;;;;;;;;;;;22.40;39.60;;;;;;5053991;28;20472;-61
2022/04/16 11:16:43;;;;;;;;;;;22.40;39.60;;;;;;5053611;28;19909;-60
2022/04/16 11:19:13;;;;;;;;;;;22.40;39.60;;;;;;5054167;28;19916;-60
2022/04/16 11:21:38;;;;;;;;;;;22.40;39.50;;;;;;5054034;28;19913;-60
2022/04/16 11:24:05;;;;;;;;;;;22.40;39.50;;;;;;5053979;28;20340;-60
2022/04/16 11:34:43;;;;;;;;;;;22.40;39.30;;;;;;5070962;28;19920;-61
2022/04/16 11:37:09;;;;;;;;;;;22.50;39.40;;;;;;5072613;28;20333;-60
2022/04/16 11:39:34;;;;;;;;;;;22.40;39.30;;;;;;5073309;28;19957;-60
2022/04/16 11:42:02;;;;;;;;;;;22.40;39.50;;;;;;5071577;28;19955;-61
2022/04/16 11:44:38;;;;;;;;;;;22.40;39.40;;;;;;5067308;28;19982;-61
2022/04/16 11:47:09;;;;;;;;;;;22.40;39.30;;;;;;5073397;28;19950;-61
2022/04/16 11:49:39;;;;;;;;;;;22.50;39.30;;;;;;5073119;28;19987;-61
2022/04/16 11:52:05;;;;;;;;;;;22.40;39.50;;;;;;5080886;28;19912;-60
2022/04/16 11:54:30;;;;;;;;;;;22.40;39.50;;;;;;5092284;28;19957;-61
2022/04/16 11:56:56;;;;;;;;;;;22.40;39.60;;;;;;5093664;28;20443;-60
2022/04/16 11:59:25;;;;;;;;;;;22.40;39.60;;;;;;5091819;28;19908;-60
2022/04/16 12:01:58;;;;;;;;;;;22.40;39.60;;;;;;5073908;28;19916;-60
2022/04/16 12:04:33;;;;;;;;;;;22.40;39.70;;;;;;5073289;28;19912;-60
2022/04/16 12:06:59;;;;;;;;;;;22.40;39.80;;;;;;5072785;28;20006;-61
2022/04/16 12:09:24;;;;;;;;;;;22.40;39.90;;;;;;5070632;28;19995;-61
2022/04/16 12:11:53;;;;;;;;;;;22.40;39.60;;;;;;5072686;28;19936;-61
2022/04/16 12:14:19;;;;;;;;;;;22.40;39.70;;;;;;5070204;28;19909;-62
2022/04/16 12:16:44;;;;;;;;;;;22.40;39.90;;;;;;5071533;28;19916;-62
2022/04/16 12:19:10;;;;;;;;;;;22.40;39.90;;;;;;5070655;28;20304;-61
2022/04/16 12:21:39;;;;;;;;;;;22.40;39.80;;;;;;5071514;28;19965;-61
2022/04/16 12:24:05;;;;;;;;;;;22.40;39.60;;;;;;5072885;28;19916;-61
2022/04/16 12:26:31;;;;;;;;;;;22.40;39.70;;;;;;5071125;28;19916;-60
2022/04/16 12:28:56;;;;;;;;;;;22.40;39.90;;;;;;5071632;28;19912;-61
2022/04/16 12:31:28;;;;;;;;;;;22.40;39.90;;;;;;5069430;28;19909;-60
2022/04/16 12:33:53;;;;;;;;;;;22.40;39.90;;;;;;5072652;28;19995;-61
2022/04/16 12:36:19;;;;;;;;;;;22.50;39.70;;;;;;5069656;28;20395;-61
2022/04/16 12:38:44;;;;;;;;;;;22.50;39.70;;;;;;5071338;28;19916;-61
2022/04/16 12:41:10;;;;;;;;;;;22.50;39.80;;;;;;5069341;28;20285;-61
2022/04/16 12:43:36;;;;;;;;;;;22.50;39.90;;;;;;5071186;28;19931;-61
2022/04/16 12:46:01;;;;;;;;;;;22.50;39.80;;;;;;5071840;28;20319;-61
2022/04/16 12:48:27;;;;;;;;;;;22.60;39.80;;;;;;5072422;28;19915;-61
2022/04/16 12:50:54;;;;;;;;;;;22.60;40.00;;;;;;5071507;28;21114;-61
2022/04/16 12:53:19;;;;;;;;;;;22.60;39.90;;;;;;5072377;28;20023;-61
2022/04/16 12:55:45;;;;;;;;;;;22.60;39.70;;;;;;5071477;28;20376;-61
2022/04/16 12:58:10;;;;;;;;;;;22.60;40.00;;;;;;5072106;28;20319;-61
2022/04/16 13:00:36;;;;;;;;;;;22.60;40.00;;;;;;5071357;28;19908;-61
2022/04/16 13:03:02;;;;;;;;;;;22.70;40.10;;;;;;5070907;28;20211;-61
2022/04/16 13:05:29;;;;;;;;;;;22.60;39.80;;;;;;5053863;28;19909;-61
2022/04/16 13:07:57;;;;;;;;;;;22.70;40.00;;;;;;5054371;28;20365;-61
2022/04/16 13:10:22;;;;;;;;;;;22.70;40.00;;;;;;5072124;28;20433;-61
2022/04/16 13:12:48;;;;;;;;;;;22.70;40.60;;;;;;5055028;28;19913;-61
2022/04/16 13:15:13;;;;;;;;;;;22.70;40.00;;;;;;5051170;28;19913;-61
2022/04/16 13:17:39;;;;;;;;;;;22.70;39.90;;;;;;5052170;28;19921;-61
2022/04/16 13:20:05;;;;;;;;;;;22.70;40.10;;;;;;5050549;28;20388;-62
2022/04/16 13:22:30;;;;;;;;;;;22.70;40.10;;;;;;5051817;28;20300;-61
2022/04/16 13:24:56;;;;;;;;;;;22.80;40.20;;;;;;5051943;28;19976;-61
2022/04/16 13:27:21;;;;;;;;;;;22.80;40.00;;;;;;5051952;28;20042;-61
2022/04/16 13:29:47;;;;;;;;;;;22.90;40.10;;;;;;5063071;28;20063;-61
2022/04/16 13:32:14;;;;;;;;;;;22.90;40.20;;;;;;5072009;28;20281;-60
2022/04/16 13:34:40;;;;;;;;;;;23.00;40.10;;;;;;5069803;28;19912;-61
2022/04/16 13:37:06;;;;;;;;;;;23.00;40.20;;;;;;5072077;28;19923;-61
2022/04/16 13:42:16;;;;;;;;;;;23.00;40.00;;;;;;5071772;28;19915;-61
2022/04/16 13:44:41;;;;;;;;;;;23.00;39.90;;;;;;5070789;28;19921;-61
2022/04/16 13:47:07;;;;;;;;;;;23.00;40.00;;;;;;5071755;28;19913;-62
2022/04/16 13:49:33;;;;;;;;;;;23.00;40.00;;;;;;5070263;28;19954;-61
2022/04/16 13:51:58;;;;;;;;;;;23.10;40.10;;;;;;5071693;28;19916;-61
2022/04/16 13:54:24;;;;;;;;;;;23.00;39.90;;;;;;5071569;28;19952;-61
2022/04/16 13:56:49;;;;;;;;;;;23.00;39.50;;;;;;5071507;28;19999;-61
2022/04/16 13:59:15;;;;;;;;;;;23.00;39.70;;;;;;5071340;28;19913;-61
2022/04/16 14:01:41;;;;;;;;;;;23.00;39.70;;;;;;5058620;28;19913;-61
2022/04/16 14:04:06;;;;;;;;;;;23.00;39.60;;;;;;5050322;28;19962;-61
2022/04/16 14:06:32;;;;;;;;;;;23.00;39.80;;;;;;5057382;28;20000;-61
2022/04/16 14:08:57;;;;;;;;;;;22.90;39.80;;;;;;5069609;28;19919;-61
2022/04/16 14:11:24;;;;;;;;;;;22.90;39.80;;;;;;5070106;28;19908;-61
2022/04/16 14:13:49;;;;;;;;;;;22.90;39.90;;;;;;5065556;28;19913;-61
2022/04/16 14:16:15;;;;;;;;;;;22.90;39.70;;;;;;5074407;28;20437;-61
2022/04/16 14:18:43;;;;;;;;;;;22.90;39.80;;;;;;5075104;28;19916;-61
2022/04/16 14:21:08;;;;;;;;;;;22.90;39.70;;;;;;5075215;28;20258;-61
2022/04/16 14:23:34;;;;;;;;;;;22.90;39.80;;;;;;5075353;28;19912;-61
2022/04/16 14:26:03;;;;;;;;;;;23.00;39.80;;;;;;5074749;28;19908;-61
2022/04/16 14:28:29;;;;;;;;;;;23.00;39.90;;;;;;5075102;28;19915;-61
2022/04/16 14:30:55;;;;;;;;;;;23.00;40.00;;;;;;5073167;28;19913;-61
2022/04/16 14:33:20;;;;;;;;;;;23.00;39.90;;;;;;5072571;28;19942;-61
2022/04/16 14:35:47;;;;;;;;;;;23.00;39.90;;;;;;5074683;28;19909;-61